sensor_id;sensor_type;location;lat;lon;timestamp;pressure;altitude;pressure_sealevel;temperature;humidity
25638;BME280;13496;51.040;13.680;2022-11-15T00:02:15;99793.72;;;17.16;54.27
25638;BME280;13496;51.040;13.680;2022-11-15T00:07:35;99780.63;;;17.16;54.45
25638;BME280;13496;51.040;13.680;2022-11-15T00:12:55;99784.25;;;17.15;54.29
25638;BME280;13496;51.040;13.680;2022-11-15T00:18:16;99780.63;;;17.16;54.45
25638;BME280;13496;51.040;13.680;2022-11-15T00:23:36;99774.75;;;17.14;54.43
25638;BME280;13496;51.040;13.680;2022-11-15T00:28:57;99770.31;;;17.14;54.24
25638;BME280;13496;51.040;13.680;2022-11-15T00:34:17;99755.41;;;17.15;54.36
25638;BME280;13496;51.040;13.680;2022-11-15T00:39:38;99768.88;;;17.12;54.35
25638;BME280;13496;51.040;13.680;2022-11-15T00:44:58;99774.91;;;17.12;54.25
25638;BME280;13496;51.040;13.680;2022-11-15T00:50:18;99772.13;;;17.14;54.35
25638;BME280;13496;51.040;13.680;2022-11-15T00:55:39;99763.63;;;17.12;54.49
25638;BME280;13496;51.040;13.680;2022-11-15T01:01:13;99749.91;;;17.10;54.24
25638;BME280;13496;51.040;13.680;2022-11-15T01:06:33;99761.53;;;17.07;54.31
25638;BME280;13496;51.040;13.680;2022-11-15T01:11:53;99757.13;;;17.08;54.58
25638;BME280;13496;51.040;13.680;2022-11-15T01:17:14;99743.00;;;17.09;54.53
25638;BME280;13496;51.040;13.680;2022-11-15T01:22:34;99756.31;;;17.07;54.56
25638;BME280;13496;51.040;13.680;2022-11-15T01:27:54;99745.00;;;17.07;54.46
25638;BME280;13496;51.040;13.680;2022-11-15T01:33:15;99736.50;;;17.05;54.54
25638;BME280;13496;51.040;13.680;2022-11-15T01:38:36;99738.16;;;17.06;54.55
25638;BME280;13496;51.040;13.680;2022-11-15T01:44:28;99736.13;;;17.08;54.32
25638;BME280;13496;51.040;13.680;2022-11-15T01:49:40;99721.56;;;17.05;54.32
25638;BME280;13496;51.040;13.680;2022-11-15T01:55:35;99719.78;;;17.06;54.52
25638;BME280;13496;51.040;13.680;2022-11-15T02:00:55;99708.66;;;17.04;54.33
25638;BME280;13496;51.040;13.680;2022-11-15T02:06:15;99706.84;;;17.04;54.49
25638;BME280;13496;51.040;13.680;2022-11-15T02:11:36;99714.91;;;17.03;54.38
25638;BME280;13496;51.040;13.680;2022-11-15T02:17:17;99698.53;;;17.01;54.54
25638;BME280;13496;51.040;13.680;2022-11-15T02:40:00;99680.19;;;17.01;54.29
25638;BME280;13496;51.040;13.680;2022-11-15T02:45:28;99673.31;;;17.00;54.41
25638;BME280;13496;51.040;13.680;2022-11-15T02:50:50;99667.44;;;16.98;54.43
25638;BME280;13496;51.040;13.680;2022-11-15T02:56:11;99673.47;;;16.98;54.45
25638;BME280;13496;51.040;13.680;2022-11-15T03:07:27;99656.50;;;16.94;54.54
25638;BME280;13496;51.040;13.680;2022-11-15T03:13:04;99660.91;;;16.93;54.48
25638;BME280;13496;51.040;13.680;2022-11-15T03:18:32;99646.19;;;16.92;54.45
25638;BME280;13496;51.040;13.680;2022-11-15T03:23:55;99645.19;;;16.93;54.42
25638;BME280;13496;51.040;13.680;2022-11-15T03:29:28;99640.97;;;16.92;54.38
25638;BME280;13496;51.040;13.680;2022-11-15T03:35:04;99642.13;;;16.90;54.56
25638;BME280;13496;51.040;13.680;2022-11-15T03:40:51;99638.69;;;16.89;54.44
25638;BME280;13496;51.040;13.680;2022-11-15T03:46:20;99629.03;;;16.90;54.31
25638;BME280;13496;51.040;13.680;2022-11-15T03:51:44;99634.44;;;16.88;54.22
25638;BME280;13496;51.040;13.680;2022-11-15T03:57:04;99624.13;;;16.87;54.44
25638;BME280;13496;51.040;13.680;2022-11-15T04:02:24;99626.59;;;16.88;54.26
25638;BME280;13496;51.040;13.680;2022-11-15T04:07:45;99618.28;;;16.85;54.35
25638;BME280;13496;51.040;13.680;2022-11-15T04:13:05;99609.59;;;16.84;54.28
25638;BME280;13496;51.040;13.680;2022-11-15T04:18:25;99617.81;;;16.81;54.66
25638;BME280;13496;51.040;13.680;2022-11-15T04:23:46;99619.63;;;16.81;54.07
25638;BME280;13496;51.040;13.680;2022-11-15T04:29:25;99619.63;;;16.81;54.40
25638;BME280;13496;51.040;13.680;2022-11-15T04:34:55;99619.19;;;16.77;54.64
25638;BME280;13496;51.040;13.680;2022-11-15T04:40:15;99600.63;;;16.79;54.44
25638;BME280;13496;51.040;13.680;2022-11-15T04:45:36;99601.84;;;16.76;54.45
25638;BME280;13496;51.040;13.680;2022-11-15T04:50:56;99605.06;;;16.78;54.33
25638;BME280;13496;51.040;13.680;2022-11-15T04:56:16;99602.44;;;16.78;54.33
25638;BME280;13496;51.040;13.680;2022-11-15T05:01:37;99603.81;;;16.74;54.45
25638;BME280;13496;51.040;13.680;2022-11-15T05:06:57;99591.34;;;16.76;54.45
25638;BME280;13496;51.040;13.680;2022-11-15T05:12:18;99585.13;;;16.77;54.66
25638;BME280;13496;51.040;13.680;2022-11-15T05:17:38;99586.56;;;16.80;54.43
25638;BME280;13496;51.040;13.680;2022-11-15T05:22:59;99579.06;;;16.77;54.99
25638;BME280;13496;51.040;13.680;2022-11-15T05:28:19;99575.44;;;16.78;54.86
25638;BME280;13496;51.040;13.680;2022-11-15T05:33:40;99576.44;;;16.77;55.01
25638;BME280;13496;51.040;13.680;2022-11-15T05:39:02;99582.50;;;16.77;55.13
25638;BME280;13496;51.040;13.680;2022-11-15T05:44:23;99587.72;;;16.77;55.26
25638;BME280;13496;51.040;13.680;2022-11-15T05:49:45;99584.31;;;16.77;55.05
25638;BME280;13496;51.040;13.680;2022-11-15T05:55:08;99584.13;;;16.78;55.05
25638;BME280;13496;51.040;13.680;2022-11-15T06:00:29;99580.50;;;16.79;55.02
25638;BME280;13496;51.040;13.680;2022-11-15T06:05:49;99582.50;;;16.77;55.25
25638;BME280;13496;51.040;13.680;2022-11-15T06:11:09;99580.69;;;16.78;55.31
25638;BME280;13496;51.040;13.680;2022-11-15T06:16:30;99578.88;;;16.78;55.17
25638;BME280;13496;51.040;13.680;2022-11-15T06:21:50;99578.88;;;16.78;55.22
25638;BME280;13496;51.040;13.680;2022-11-15T06:27:11;99582.31;;;16.79;55.00
25638;BME280;13496;51.040;13.680;2022-11-15T06:32:31;99591.81;;;16.80;54.96
25638;BME280;13496;51.040;13.680;2022-11-15T06:37:52;99597.41;;;16.77;54.99
25638;BME280;13496;51.040;13.680;2022-11-15T06:43:12;99586.72;;;16.78;55.16
25638;BME280;13496;51.040;13.680;2022-11-15T06:48:33;99599.84;;;16.78;55.09
25638;BME280;13496;51.040;13.680;2022-11-15T06:53:54;99603.47;;;16.77;55.24
25638;BME280;13496;51.040;13.680;2022-11-15T06:59:14;99595.59;;;16.77;55.28
25638;BME280;13496;51.040;13.680;2022-11-15T07:04:35;99595.59;;;16.77;55.04
25638;BME280;13496;51.040;13.680;2022-11-15T07:09:56;99603.25;;;16.79;55.00
25638;BME280;13496;51.040;13.680;2022-11-15T07:15:18;99600.47;;;16.80;54.79
25638;BME280;13496;51.040;13.680;2022-11-15T07:20:38;99608.34;;;16.80;55.00
25638;BME280;13496;51.040;13.680;2022-11-15T07:25:59;99608.59;;;16.85;54.85
25638;BME280;13496;51.040;13.680;2022-11-15T07:31:20;99614.09;;;16.90;54.89
25638;BME280;13496;51.040;13.680;2022-11-15T07:36:40;99609.41;;;17.01;54.69
25638;BME280;13496;51.040;13.680;2022-11-15T07:42:01;99619.28;;;17.13;54.44
25638;BME280;13496;51.040;13.680;2022-11-15T07:47:40;99604.78;;;17.32;53.98
25638;BME280;13496;51.040;13.680;2022-11-15T07:53:00;99614.34;;;17.55;53.63
25638;BME280;13496;51.040;13.680;2022-11-15T07:58:21;99604.72;;;17.77;53.18
25638;BME280;13496;51.040;13.680;2022-11-15T08:03:41;99596.84;;;17.98;52.47
25638;BME280;13496;51.040;13.680;2022-11-15T08:09:02;99601.66;;;18.16;52.35
25638;BME280;13496;51.040;13.680;2022-11-15T08:14:22;99600.38;;;18.33;52.01
25638;BME280;13496;51.040;13.680;2022-11-15T08:19:43;99600.88;;;18.44;51.54
25638;BME280;13496;51.040;13.680;2022-11-15T08:25:03;99597.63;;;18.42;51.65
25638;BME280;13496;51.040;13.680;2022-11-15T08:30:24;99601.84;;;18.43;51.80
25638;BME280;13496;51.040;13.680;2022-11-15T08:35:45;99587.47;;;18.38;51.64
25638;BME280;13496;51.040;13.680;2022-11-15T08:41:05;99586.38;;;18.26;52.16
25638;BME280;13496;51.040;13.680;2022-11-15T08:46:26;99584.91;;;18.17;52.10
25638;BME280;13496;51.040;13.680;2022-11-15T08:51:46;99582.66;;;18.14;52.27
25638;BME280;13496;51.040;13.680;2022-11-15T08:57:07;99570.91;;;18.10;52.38
25638;BME280;13496;51.040;13.680;2022-11-15T09:02:29;99569.03;;;18.04;52.73
25638;BME280;13496;51.040;13.680;2022-11-15T09:07:53;99573.66;;;18.02;52.91
25638;BME280;13496;51.040;13.680;2022-11-15T09:13:14;99561.34;;;18.02;52.86
25638;BME280;13496;51.040;13.680;2022-11-15T09:18:34;99562.53;;;18.00;53.02
25638;BME280;13496;51.040;13.680;2022-11-15T09:23:55;99560.53;;;18.02;52.87
25638;BME280;13496;51.040;13.680;2022-11-15T09:29:15;99573.28;;;18.05;52.80
25638;BME280;13496;51.040;13.680;2022-11-15T09:34:36;99565.41;;;18.05;53.13
25638;BME280;13496;51.040;13.680;2022-11-15T09:39:56;99553.09;;;18.05;53.07
25638;BME280;13496;51.040;13.680;2022-11-15T09:45:32;99543.22;;;18.07;53.28
25638;BME280;13496;51.040;13.680;2022-11-15T09:50:54;99546.28;;;18.11;53.27
25638;BME280;13496;51.040;13.680;2022-11-15T09:56:09;99547.88;;;18.12;53.33
25638;BME280;13496;51.040;13.680;2022-11-15T10:01:41;99547.88;;;18.12;53.54
25638;BME280;13496;51.040;13.680;2022-11-15T10:06:52;99533.22;;;18.18;53.34
25638;BME280;13496;51.040;13.680;2022-11-15T10:11:55;99532.03;;;18.27;52.78
25638;BME280;13496;51.040;13.680;2022-11-15T10:17:14;99526.03;;;18.33;52.68
25638;BME280;13496;51.040;13.680;2022-11-15T10:22:31;99525.25;;;18.39;52.69
25638;BME280;13496;51.040;13.680;2022-11-15T10:27:36;99521.88;;;18.45;52.16
25638;BME280;13496;51.040;13.680;2022-11-15T10:32:40;99504.53;;;18.51;52.30
25638;BME280;13496;51.040;13.680;2022-11-15T10:37:43;99497.28;;;18.59;52.06
25638;BME280;13496;51.040;13.680;2022-11-15T10:42:45;99486.19;;;18.64;51.98
25638;BME280;13496;51.040;13.680;2022-11-15T10:47:47;99492.69;;;18.68;51.94
25638;BME280;13496;51.040;13.680;2022-11-15T10:52:48;99478.56;;;18.69;52.06
25638;BME280;13496;51.040;13.680;2022-11-15T10:57:53;99475.94;;;18.69;51.83
25638;BME280;13496;51.040;13.680;2022-11-15T11:02:56;99474.28;;;18.68;52.01
25638;BME280;13496;51.040;13.680;2022-11-15T11:13:23;99453.66;;;18.58;52.30
25638;BME280;13496;51.040;13.680;2022-11-15T11:18:34;99450.97;;;18.52;52.51
25638;BME280;13496;51.040;13.680;2022-11-15T11:28:53;99435.13;;;18.38;53.01
25638;BME280;13496;51.040;13.680;2022-11-15T11:49:46;99418.94;;;18.28;53.43
25638;BME280;13496;51.040;13.680;2022-11-15T11:55:05;99420.97;;;18.33;53.44
25638;BME280;13496;51.040;13.680;2022-11-15T12:00:20;99404.16;;;18.27;53.66
25638;BME280;13496;51.040;13.680;2022-11-15T12:05:48;99402.78;;;18.31;53.32
25638;BME280;13496;51.040;13.680;2022-11-15T12:11:10;99392.28;;;18.31;53.33
25638;BME280;13496;51.040;13.680;2022-11-15T12:16:19;99384.38;;;18.31;53.76
25638;BME280;13496;51.040;13.680;2022-11-15T12:26:54;99378.94;;;18.26;53.60
25638;BME280;13496;51.040;13.680;2022-11-15T12:31:59;99355.91;;;18.28;53.74
25638;BME280;13496;51.040;13.680;2022-11-15T12:37:34;99349.81;;;18.28;53.69
25638;BME280;13496;51.040;13.680;2022-11-15T12:58:48;99332.66;;;18.25;53.57
25638;BME280;13496;51.040;13.680;2022-11-15T13:19:39;99317.94;;;18.31;53.37
25638;BME280;13496;51.040;13.680;2022-11-15T13:24:40;99315.31;;;18.31;53.49
25638;BME280;13496;51.040;13.680;2022-11-15T13:29:43;99310.25;;;18.29;53.38
25638;BME280;13496;51.040;13.680;2022-11-15T13:34:47;99311.06;;;18.30;53.43
25638;BME280;13496;51.040;13.680;2022-11-15T13:39:49;99305.41;;;18.26;53.55
25638;BME280;13496;51.040;13.680;2022-11-15T13:45:00;99302.78;;;18.26;53.33
25638;BME280;13496;51.040;13.680;2022-11-15T13:50:02;99307.41;;;18.31;53.22
25638;BME280;13496;51.040;13.680;2022-11-15T13:55:17;99299.53;;;18.31;53.47
25638;BME280;13496;51.040;13.680;2022-11-15T14:00:40;99295.31;;;18.30;53.12
25638;BME280;13496;51.040;13.680;2022-11-15T14:06:09;99293.50;;;18.30;53.30
25638;BME280;13496;51.040;13.680;2022-11-15T14:11:18;99290.06;;;18.30;53.16
25638;BME280;13496;51.040;13.680;2022-11-15T14:16:21;99289.63;;;18.26;52.97
25638;BME280;13496;51.040;13.680;2022-11-15T14:21:33;99281.75;;;18.26;53.26
25638;BME280;13496;51.040;13.680;2022-11-15T14:26:35;99273.06;;;18.26;53.35
25638;BME280;13496;51.040;13.680;2022-11-15T14:31:37;99272.44;;;18.24;53.23
25638;BME280;13496;51.040;13.680;2022-11-15T14:36:38;99268.84;;;18.25;53.25
25638;BME280;13496;51.040;13.680;2022-11-15T14:41:40;99266.59;;;18.22;53.32
25638;BME280;13496;51.040;13.680;2022-11-15T14:46:42;99272.66;;;18.22;53.21
25638;BME280;13496;51.040;13.680;2022-11-15T14:51:43;99272.88;;;18.21;53.41
25638;BME280;13496;51.040;13.680;2022-11-15T14:56:45;99265.00;;;18.21;53.23
25638;BME280;13496;51.040;13.680;2022-11-15T15:01:47;99263.56;;;18.18;53.11
25638;BME280;13496;51.040;13.680;2022-11-15T15:06:48;99267.19;;;18.17;53.03
25638;BME280;13496;51.040;13.680;2022-11-15T15:11:50;99254.47;;;18.14;53.29
25638;BME280;13496;51.040;13.680;2022-11-15T15:16:52;99245.56;;;18.15;53.28
25638;BME280;13496;51.040;13.680;2022-11-15T15:21:55;99244.13;;;18.12;53.14
25638;BME280;13496;51.040;13.680;2022-11-15T15:26:57;99246.59;;;18.14;53.63
25638;BME280;13496;51.040;13.680;2022-11-15T15:31:59;99246.75;;;18.12;53.49
25638;BME280;13496;51.040;13.680;2022-11-15T15:37:26;99245.97;;;18.12;53.58
25638;BME280;13496;51.040;13.680;2022-11-15T15:42:28;99249.59;;;18.11;53.54
25638;BME280;13496;51.040;13.680;2022-11-15T15:47:30;99241.91;;;18.09;53.42
25638;BME280;13496;51.040;13.680;2022-11-15T15:52:31;99236.47;;;18.11;53.58
25638;BME280;13496;51.040;13.680;2022-11-15T15:57:33;99243.94;;;18.07;53.37
25638;BME280;13496;51.040;13.680;2022-11-15T16:02:35;99238.69;;;18.07;53.33
25638;BME280;13496;51.040;13.680;2022-11-15T16:07:37;99243.13;;;18.07;53.41
25638;BME280;13496;51.040;13.680;2022-11-15T16:12:40;99241.50;;;18.06;53.49
25638;BME280;13496;51.040;13.680;2022-11-15T16:17:49;99237.06;;;18.06;53.72
25638;BME280;13496;51.040;13.680;2022-11-15T16:22:52;99239.88;;;18.05;53.67
25638;BME280;13496;51.040;13.680;2022-11-15T16:27:53;99236.28;;;18.06;53.98
25638;BME280;13496;51.040;13.680;2022-11-15T16:32:55;99230.38;;;18.04;54.00
25638;BME280;13496;51.040;13.680;2022-11-15T16:37:57;99221.72;;;18.03;53.85
25638;BME280;13496;51.040;13.680;2022-11-15T16:42:59;99225.94;;;18.04;54.21
25638;BME280;13496;51.040;13.680;2022-11-15T16:48:03;99228.78;;;18.03;54.13
25638;BME280;13496;51.040;13.680;2022-11-15T16:53:05;99213.41;;;18.00;54.13
25638;BME280;13496;51.040;13.680;2022-11-15T16:58:08;99215.03;;;18.01;54.14
25638;BME280;13496;51.040;13.680;2022-11-15T17:03:10;99211.59;;;18.00;54.33
25638;BME280;13496;51.040;13.680;2022-11-15T17:08:12;99215.41;;;17.98;54.29
25638;BME280;13496;51.040;13.680;2022-11-15T17:13:14;99206.94;;;17.96;54.43
25638;BME280;13496;51.040;13.680;2022-11-15T17:18:15;99204.91;;;17.98;54.31
25638;BME280;13496;51.040;13.680;2022-11-15T17:23:17;99198.06;;;17.97;54.24
25638;BME280;13496;51.040;13.680;2022-11-15T17:28:19;99190.19;;;17.97;54.57
25638;BME280;13496;51.040;13.680;2022-11-15T17:33:20;99194.63;;;17.96;54.17
25638;BME280;13496;51.040;13.680;2022-11-15T17:38:22;99195.81;;;17.94;54.53
25638;BME280;13496;51.040;13.680;2022-11-15T17:43:24;99193.03;;;17.95;54.48
25638;BME280;13496;51.040;13.680;2022-11-15T17:48:26;99202.69;;;17.95;54.50
25638;BME280;13496;51.040;13.680;2022-11-15T17:53:37;99199.88;;;17.96;54.32
25638;BME280;13496;51.040;13.680;2022-11-15T17:58:39;99179.06;;;17.95;54.30
25638;BME280;13496;51.040;13.680;2022-11-15T18:03:41;99180.06;;;17.94;54.58
25638;BME280;13496;51.040;13.680;2022-11-15T18:08:45;99172.19;;;17.94;54.61
25638;BME280;13496;51.040;13.680;2022-11-15T18:13:49;99167.56;;;17.96;54.52
25638;BME280;13496;51.040;13.680;2022-11-15T18:18:53;99161.91;;;17.92;54.45
25638;BME280;13496;51.040;13.680;2022-11-15T18:23:57;99155.66;;;17.93;54.40
25638;BME280;13496;51.040;13.680;2022-11-15T18:29:03;99151.22;;;17.94;54.54
25638;BME280;13496;51.040;13.680;2022-11-15T18:34:05;99140.13;;;17.92;54.24
25638;BME280;13496;51.040;13.680;2022-11-15T18:39:08;99150.00;;;17.89;54.60
25638;BME280;13496;51.040;13.680;2022-11-15T18:44:17;99142.75;;;17.92;54.40
25638;BME280;13496;51.040;13.680;2022-11-15T18:49:18;99134.25;;;17.89;54.51
25638;BME280;13496;51.040;13.680;2022-11-15T18:54:20;99134.25;;;17.89;54.55
25638;BME280;13496;51.040;13.680;2022-11-15T18:59:22;99130.81;;;17.89;54.53
25638;BME280;13496;51.040;13.680;2022-11-15T19:04:24;99129.63;;;17.92;54.59
25638;BME280;13496;51.040;13.680;2022-11-15T19:09:25;99129.78;;;17.90;54.45
25638;BME280;13496;51.040;13.680;2022-11-15T19:14:33;99140.28;;;17.90;54.64
25638;BME280;13496;51.040;13.680;2022-11-15T19:19:34;99140.50;;;17.88;54.82
25638;BME280;13496;51.040;13.680;2022-11-15T19:24:36;99128.41;;;17.87;54.55
25638;BME280;13496;51.040;13.680;2022-11-15T19:29:38;99127.16;;;17.90;54.80
25638;BME280;13496;51.040;13.680;2022-11-15T19:34:41;99131.03;;;17.87;54.56
25638;BME280;13496;51.040;13.680;2022-11-15T19:39:43;99137.88;;;17.88;54.61
25638;BME280;13496;51.040;13.680;2022-11-15T19:44:45;99129.22;;;17.88;54.71
25638;BME280;13496;51.040;13.680;2022-11-15T19:49:47;99128.41;;;17.87;54.79
25638;BME280;13496;51.040;13.680;2022-11-15T19:54:48;99120.94;;;17.91;55.17
25638;BME280;13496;51.040;13.680;2022-11-15T19:59:50;99113.69;;;18.00;55.12
25638;BME280;13496;51.040;13.680;2022-11-15T20:04:52;99112.47;;;18.02;55.37
25638;BME280;13496;51.040;13.680;2022-11-15T20:09:53;99112.47;;;18.02;55.17
25638;BME280;13496;51.040;13.680;2022-11-15T20:14:55;99111.66;;;18.02;55.48
25638;BME280;13496;51.040;13.680;2022-11-15T20:19:57;99104.78;;;18.01;55.18
25638;BME280;13496;51.040;13.680;2022-11-15T20:24:59;99111.84;;;18.00;55.40
25638;BME280;13496;51.040;13.680;2022-11-15T20:30:01;99105.00;;;17.99;55.18
25638;BME280;13496;51.040;13.680;2022-11-15T20:35:03;99100.56;;;18.00;55.21
25638;BME280;13496;51.040;13.680;2022-11-15T20:40:05;99092.06;;;17.98;55.22
25638;BME280;13496;51.040;13.680;2022-11-15T20:45:07;99090.44;;;17.97;55.15
25638;BME280;13496;51.040;13.680;2022-11-15T20:50:09;99076.69;;;17.95;55.43
25638;BME280;13496;51.040;13.680;2022-11-15T20:55:10;99084.78;;;17.93;54.96
25638;BME280;13496;51.040;13.680;2022-11-15T21:00:12;99086.81;;;17.91;55.50
25638;BME280;13496;51.040;13.680;2022-11-15T21:05:14;99085.81;;;17.92;54.86
25638;BME280;13496;51.040;13.680;2022-11-15T21:10:16;99073.88;;;17.89;55.12
25638;BME280;13496;51.040;13.680;2022-11-15T21:15:37;99067.63;;;17.90;55.12
25638;BME280;13496;51.040;13.680;2022-11-15T21:20:38;99068.63;;;17.89;55.04
25638;BME280;13496;51.040;13.680;2022-11-15T21:25:40;99052.28;;;17.87;55.22
25638;BME280;13496;51.040;13.680;2022-11-15T21:31:08;99056.53;;;17.88;55.00
25638;BME280;13496;51.040;13.680;2022-11-15T21:36:10;99054.91;;;17.87;55.06
25638;BME280;13496;51.040;13.680;2022-11-15T21:41:12;99051.47;;;17.87;55.18
25638;BME280;13496;51.040;13.680;2022-11-15T21:46:13;99043.41;;;17.88;55.24
25638;BME280;13496;51.040;13.680;2022-11-15T21:51:15;99032.50;;;17.85;55.05
25638;BME280;13496;51.040;13.680;2022-11-15T21:56:17;99030.91;;;17.84;55.54
25638;BME280;13496;51.040;13.680;2022-11-15T22:01:19;99028.06;;;17.85;55.47
25638;BME280;13496;51.040;13.680;2022-11-15T22:06:40;99022.00;;;17.85;55.53
25638;BME280;13496;51.040;13.680;2022-11-15T22:11:41;99028.44;;;17.82;55.58
25638;BME280;13496;51.040;13.680;2022-11-15T22:16:43;99029.25;;;17.83;55.35
25638;BME280;13496;51.040;13.680;2022-11-15T22:21:45;99015.34;;;17.82;55.40
25638;BME280;13496;51.040;13.680;2022-11-15T22:26:46;99014.53;;;17.82;55.38
25638;BME280;13496;51.040;13.680;2022-11-15T22:31:48;99001.63;;;17.80;55.52
25638;BME280;13496;51.040;13.680;2022-11-15T22:36:50;98995.34;;;17.81;55.44
25638;BME280;13496;51.040;13.680;2022-11-15T22:41:51;98984.25;;;17.79;55.64
25638;BME280;13496;51.040;13.680;2022-11-15T22:46:53;98964.09;;;17.80;55.50
25638;BME280;13496;51.040;13.680;2022-11-15T22:51:55;98960.63;;;17.79;55.31
25638;BME280;13496;51.040;13.680;2022-11-15T22:56:57;98962.44;;;17.79;55.71
25638;BME280;13496;51.040;13.680;2022-11-15T23:01:59;98956.41;;;17.78;55.57
25638;BME280;13496;51.040;13.680;2022-11-15T23:07:00;98951.16;;;17.78;55.61
25638;BME280;13496;51.040;13.680;2022-11-15T23:12:02;98938.63;;;17.74;55.72
25638;BME280;13496;51.040;13.680;2022-11-15T23:17:22;98941.66;;;17.77;55.68
25638;BME280;13496;51.040;13.680;2022-11-15T23:22:24;98930.56;;;17.75;55.71
25638;BME280;13496;51.040;13.680;2022-11-15T23:27:44;98919.06;;;17.76;55.77
25638;BME280;13496;51.040;13.680;2022-11-15T23:32:46;98917.63;;;17.74;55.51
25638;BME280;13496;51.040;13.680;2022-11-15T23:38:06;98912.38;;;17.74;55.70
25638;BME280;13496;51.040;13.680;2022-11-15T23:43:08;98904.91;;;17.71;56.00
25638;BME280;13496;51.040;13.680;2022-11-15T23:48:10;98904.69;;;17.72;55.57
25638;BME280;13496;51.040;13.680;2022-11-15T23:53:12;98897.84;;;17.71;55.70
25638;BME280;13496;51.040;13.680;2022-11-15T23:58:13;98895.22;;;17.71;55.98
